createdAt,value
2023-01-07T00:01:45.872Z,6.63
2023-01-07T00:04:14.961Z,3.13
2023-01-07T00:06:44.447Z,4.93
2023-01-07T00:09:13.989Z,5.60
2023-01-07T00:11:42.965Z,5.37
2023-01-07T00:14:12.631Z,3.87
2023-01-07T00:16:42.669Z,3.50
2023-01-07T00:19:13.873Z,5.57
2023-01-07T00:21:42.234Z,2.43
2023-01-07T00:24:11.431Z,3.40
2023-01-07T00:26:40.028Z,4.23
2023-01-07T00:29:08.758Z,3.90
2023-01-07T00:31:38.618Z,4.63
2023-01-07T00:34:09.165Z,3.50
2023-01-07T00:36:46.019Z,3.77
2023-01-07T00:39:16.079Z,3.20
2023-01-07T00:42:06.466Z,3.90
2023-01-07T00:44:35.237Z,3.77
2023-01-07T00:47:03.672Z,3.50
2023-01-07T00:49:33.447Z,4.30
2023-01-07T00:52:01.790Z,9.53
2023-01-07T00:54:30.235Z,6.57
2023-01-07T00:56:58.573Z,6.43
2023-01-07T00:59:26.924Z,3.77
2023-01-07T01:01:55.476Z,6.90
2023-01-07T01:04:23.904Z,6.87
2023-01-07T01:06:55.758Z,7.20
2023-01-07T01:09:25.376Z,7.10
2023-01-07T01:11:53.723Z,7.27
2023-01-07T01:14:22.161Z,8.17
2023-01-07T01:16:50.479Z,6.83
2023-01-07T01:19:18.851Z,8.23
2023-01-07T01:21:47.246Z,7.27
2023-01-07T01:24:16.988Z,6.97
2023-01-07T01:26:45.359Z,7.10
2023-01-07T01:29:13.710Z,7.57
2023-01-07T01:31:42.120Z,6.50
2023-01-07T01:34:10.472Z,8.97
2023-01-07T01:36:38.928Z,9.17
2023-01-07T01:39:07.323Z,5.20
2023-01-07T01:41:37.541Z,6.30
2023-01-07T01:44:20.745Z,7.37
2023-01-07T01:46:49.039Z,6.70
2023-01-07T01:49:20.186Z,7.13
2023-01-07T01:51:50.560Z,6.47
2023-01-07T01:54:20.200Z,4.97
2023-01-07T01:56:51.591Z,6.60
2023-01-07T01:59:21.346Z,6.13
2023-01-07T02:01:50.072Z,5.17
2023-01-07T02:04:21.784Z,5.27
2023-01-07T02:06:52.559Z,6.90
2023-01-07T02:09:20.921Z,5.60
2023-01-07T02:11:54.068Z,5.80
2023-01-07T02:14:29.859Z,5.03
2023-01-07T02:17:01.530Z,5.57
2023-01-07T02:19:48.403Z,5.30
2023-01-07T02:22:27.003Z,6.77
2023-01-07T02:25:01.431Z,6.50
2023-01-07T02:27:44.656Z,5.13
2023-01-07T02:30:33.794Z,6.83
2023-01-07T02:33:19.946Z,5.00
2023-01-07T02:36:06.125Z,6.73
2023-01-07T02:38:41.191Z,6.17
2023-01-07T02:41:13.431Z,5.97
2023-01-07T02:43:44.380Z,6.43
2023-01-07T02:46:16.777Z,8.20
2023-01-07T02:48:46.311Z,6.30
2023-01-07T02:51:14.993Z,6.00
2023-01-07T02:53:47.063Z,4.53
2023-01-07T02:56:21.253Z,5.73
2023-01-07T02:59:10.664Z,4.97
2023-01-07T03:02:03.311Z,6.27
2023-01-07T03:04:44.768Z,6.00
2023-01-07T03:07:17.854Z,8.67
2023-01-07T03:09:51.463Z,6.50
2023-01-07T03:12:23.422Z,8.37
2023-01-07T03:14:53.283Z,7.47
2023-01-07T03:17:23.018Z,7.50
2023-01-07T03:19:54.680Z,9.00
2023-01-07T03:22:25.011Z,9.47
2023-01-07T03:24:56.654Z,7.53
2023-01-07T03:27:25.774Z,9.07
2023-01-07T03:29:56.076Z,8.53
2023-01-07T03:32:25.973Z,10.80
2023-01-07T03:34:54.497Z,9.47
2023-01-07T03:37:24.061Z,10.60
2023-01-07T03:39:52.744Z,9.70
2023-01-07T03:42:41.472Z,10.33
2023-01-07T03:45:13.997Z,14.67
2023-01-07T03:47:43.245Z,11.90
2023-01-07T03:50:11.820Z,12.47
2023-01-07T03:52:40.115Z,10.23
2023-01-07T03:55:08.890Z,9.97
2023-01-07T03:57:38.975Z,12.90
2023-01-07T04:00:08.793Z,10.97
2023-01-07T04:02:37.144Z,12.03
2023-01-07T04:05:05.745Z,10.53
2023-01-07T04:07:34.151Z,6.90
2023-01-07T04:10:02.592Z,10.33
2023-01-07T04:12:31.043Z,10.07
2023-01-07T04:15:00.771Z,8.67
2023-01-07T04:17:29.185Z,9.13
2023-01-07T04:19:57.525Z,8.87
2023-01-07T04:22:25.830Z,5.20
2023-01-07T04:24:54.303Z,8.13
2023-01-07T04:27:22.611Z,7.93
2023-01-07T04:29:50.959Z,10.37
2023-01-07T04:32:20.629Z,7.13
2023-01-07T04:34:48.967Z,8.97
2023-01-07T04:37:17.273Z,9.20
2023-01-07T04:39:45.582Z,11.63
2023-01-07T04:42:13.942Z,9.03
2023-01-07T04:44:42.260Z,9.33
2023-01-07T04:47:10.638Z,8.17
2023-01-07T04:49:40.309Z,9.53
2023-01-07T04:52:09.291Z,15.90
2023-01-07T04:54:37.595Z,8.73
2023-01-07T04:57:05.946Z,10.23
2023-01-07T04:59:34.289Z,9.47
2023-01-07T05:02:02.797Z,10.60
2023-01-07T05:04:31.266Z,13.13
2023-01-07T05:07:01.056Z,8.77
2023-01-07T05:09:29.448Z,10.20
2023-01-07T05:11:57.764Z,10.27
2023-01-07T05:14:26.148Z,9.57
2023-01-07T05:16:54.558Z,9.07
2023-01-07T05:19:22.991Z,9.10
2023-01-07T05:21:51.452Z,10.73
2023-01-07T05:24:21.115Z,9.53
2023-01-07T05:26:49.418Z,9.83
2023-01-07T05:29:17.740Z,10.73
2023-01-07T05:31:46.237Z,9.03
2023-01-07T05:34:14.827Z,10.13
2023-01-07T05:36:43.174Z,11.33
2023-01-07T05:39:11.483Z,10.33
2023-01-07T05:41:41.202Z,9.43
2023-01-07T05:44:09.604Z,12.60
2023-01-07T05:46:37.961Z,11.77
2023-01-07T05:49:06.423Z,12.13
2023-01-07T05:51:34.807Z,12.00
2023-01-07T05:54:03.237Z,13.63
2023-01-07T05:56:31.517Z,13.43
2023-01-07T05:59:01.320Z,12.53
2023-01-07T06:01:29.775Z,12.23
2023-01-07T06:03:58.195Z,15.00
2023-01-07T06:06:26.526Z,12.30
2023-01-07T06:08:54.829Z,15.10
2023-01-07T06:11:23.149Z,17.60
2023-01-07T06:13:51.431Z,13.63
2023-01-07T06:16:21.156Z,17.30
2023-01-07T06:18:49.481Z,12.77
2023-01-07T06:21:18.327Z,14.87
2023-01-07T06:23:46.708Z,14.73
2023-01-07T06:26:15.027Z,16.17
2023-01-07T06:28:43.318Z,15.20
2023-01-07T06:31:11.740Z,14.87
2023-01-07T06:33:41.565Z,16.50
2023-01-07T06:36:09.995Z,16.03
2023-01-07T06:38:38.401Z,15.83
2023-01-07T06:41:06.934Z,18.63
2023-01-07T06:43:35.308Z,16.00
2023-01-07T06:46:04.091Z,17.80
2023-01-07T06:48:32.508Z,16.47
2023-01-07T06:51:02.263Z,11.17
2023-01-07T06:53:30.582Z,16.17
2023-01-07T06:55:58.919Z,17.07
2023-01-07T06:58:27.230Z,15.87
2023-01-07T07:00:55.666Z,17.20
2023-01-07T07:03:24.070Z,19.27
2023-01-07T07:05:52.408Z,15.97
2023-01-07T07:08:22.079Z,20.23
2023-01-07T07:10:50.420Z,16.37
2023-01-07T07:13:18.748Z,16.17
2023-01-07T07:15:47.410Z,13.23
2023-01-07T07:18:15.808Z,18.40
2023-01-07T07:20:44.191Z,16.23
2023-01-07T07:23:12.468Z,14.73
2023-01-07T07:25:42.279Z,17.30
2023-01-07T07:28:10.745Z,19.60
2023-01-07T07:30:45.708Z,17.80
2023-01-07T07:33:18.856Z,16.97
2023-01-07T07:35:47.361Z,15.50
2023-01-07T07:38:17.659Z,16.97
2023-01-07T07:40:47.513Z,16.90
2023-01-07T07:43:16.321Z,16.30
2023-01-07T07:45:44.687Z,16.83
2023-01-07T07:48:14.521Z,15.53
2023-01-07T07:50:42.822Z,11.07
2023-01-07T07:53:11.687Z,12.90
2023-01-07T07:55:40.196Z,12.47
2023-01-07T07:58:09.902Z,12.27
2023-01-07T08:00:38.199Z,12.47
2023-01-07T08:03:07.003Z,12.30
2023-01-07T08:05:35.634Z,11.37
2023-01-07T08:08:04.187Z,12.50
2023-01-07T08:10:32.627Z,8.97
2023-01-07T08:13:00.950Z,11.30
2023-01-07T08:15:30.929Z,13.27
2023-01-07T08:18:00.401Z,8.57
2023-01-07T08:20:28.744Z,8.93
2023-01-07T08:22:59.562Z,9.70
2023-01-07T08:25:27.947Z,8.37
2023-01-07T08:27:56.645Z,8.77
2023-01-07T08:30:25.244Z,7.13
2023-01-07T08:32:55.138Z,7.03
2023-01-07T08:35:23.537Z,12.40
2023-01-07T08:37:52.166Z,7.13
2023-01-07T08:40:20.616Z,8.27
2023-01-07T08:42:49.313Z,7.40
2023-01-07T08:45:17.722Z,7.37
2023-01-07T08:47:48.482Z,6.17
2023-01-07T08:50:18.222Z,6.10
2023-01-07T08:52:47.628Z,6.63
2023-01-07T08:55:15.965Z,7.17
2023-01-07T08:57:44.290Z,5.33
2023-01-07T09:00:15.632Z,4.80
2023-01-07T09:02:44.187Z,4.40
2023-01-07T09:05:12.594Z,5.20
2023-01-07T09:07:42.307Z,4.27
2023-01-07T09:10:11.328Z,4.03
2023-01-07T09:12:39.669Z,4.67
2023-01-07T09:15:08.604Z,6.27
2023-01-07T09:17:37.018Z,4.07
2023-01-07T09:20:06.217Z,3.63
2023-01-07T09:22:34.948Z,4.63
2023-01-07T09:25:05.119Z,4.00
2023-01-07T09:27:33.945Z,2.73
2023-01-07T09:30:02.496Z,3.80
2023-01-07T09:32:30.958Z,3.03
2023-01-07T09:34:59.229Z,4.00
2023-01-07T09:37:27.535Z,2.63
2023-01-07T09:39:55.901Z,3.67
2023-01-07T09:42:29.790Z,6.83
2023-01-07T09:45:06.517Z,3.10
2023-01-07T09:47:37.161Z,3.60
2023-01-07T09:50:08.022Z,3.07
2023-01-07T09:52:38.437Z,3.33
2023-01-07T09:55:08.047Z,2.23
2023-01-07T09:57:37.785Z,4.33
2023-01-07T10:00:12.796Z,3.30
2023-01-07T10:02:46.210Z,3.43
2023-01-07T10:05:23.560Z,3.30
2023-01-07T10:07:54.892Z,4.27
2023-01-07T10:10:46.168Z,4.80
2023-01-07T10:13:27.384Z,3.70
2023-01-07T10:16:01.930Z,2.67
2023-01-07T10:18:37.619Z,3.27
2023-01-07T10:21:12.321Z,3.57
2023-01-07T10:23:42.542Z,3.97
2023-01-07T10:26:17.845Z,3.37
2023-01-07T10:28:51.773Z,3.10
2023-01-07T10:31:21.578Z,2.30
2023-01-07T10:33:51.217Z,3.87
2023-01-07T10:36:22.875Z,4.23
2023-01-07T10:38:56.843Z,3.17
2023-01-07T10:41:28.910Z,3.07
2023-01-07T10:44:06.629Z,3.70
2023-01-07T10:46:41.398Z,3.23
2023-01-07T10:49:18.775Z,3.30
2023-01-07T10:51:54.952Z,3.50
2023-01-07T10:54:31.455Z,2.67
2023-01-07T10:57:03.156Z,2.97
2023-01-07T10:59:33.054Z,2.20
2023-01-07T11:02:01.726Z,2.80
2023-01-07T11:04:30.269Z,1.97
2023-01-07T11:07:03.579Z,2.63
2023-01-07T11:09:32.753Z,2.47
2023-01-07T11:12:03.530Z,2.80
2023-01-07T11:14:34.739Z,2.77
2023-01-07T11:17:09.188Z,2.40
2023-01-07T11:19:45.270Z,2.20
2023-01-07T11:22:33.445Z,2.50
2023-01-07T11:25:02.472Z,3.83
2023-01-07T11:27:31.546Z,2.70
2023-01-07T11:30:03.730Z,3.03
2023-01-07T11:32:33.453Z,1.97
2023-01-07T11:35:02.909Z,2.60
2023-01-07T11:37:35.831Z,2.33
2023-01-07T11:40:05.712Z,2.63
2023-01-07T11:42:40.269Z,2.13
2023-01-07T11:45:16.772Z,2.20
2023-01-07T11:47:49.904Z,2.63
2023-01-07T11:50:29.050Z,3.63
2023-01-07T11:52:58.279Z,3.87
2023-01-07T11:55:26.811Z,2.23
2023-01-07T11:58:03.641Z,3.07
2023-01-07T12:00:45.093Z,2.40
2023-01-07T12:03:14.491Z,2.80
2023-01-07T12:05:44.339Z,2.57
2023-01-07T12:08:20.456Z,3.87
2023-01-07T12:10:55.391Z,2.87
2023-01-07T12:13:25.564Z,2.23
2023-01-07T12:15:57.504Z,2.60
2023-01-07T12:18:49.437Z,2.63
2023-01-07T12:21:22.518Z,2.20
2023-01-07T12:23:58.972Z,2.53
2023-01-07T12:26:30.954Z,2.70
2023-01-07T12:29:06.016Z,2.50
2023-01-07T12:31:42.569Z,3.37
2023-01-07T12:34:16.095Z,2.90
2023-01-07T12:36:47.068Z,2.60
2023-01-07T12:39:17.805Z,2.40
2023-01-07T12:41:49.127Z,4.50
2023-01-07T12:44:20.325Z,3.10
2023-01-07T12:46:56.169Z,3.07
2023-01-07T12:49:48.237Z,3.17
2023-01-07T12:52:17.930Z,3.33
2023-01-07T12:54:51.122Z,3.60
2023-01-07T12:57:21.431Z,2.50
2023-01-07T12:59:51.603Z,2.70
2023-01-07T13:02:26.923Z,2.77
2023-01-07T13:05:02.184Z,2.60
2023-01-07T13:07:33.893Z,2.50
2023-01-07T13:10:04.265Z,3.23
2023-01-07T13:12:47.515Z,2.97
2023-01-07T13:15:21.877Z,2.60
2023-01-07T13:17:53.917Z,3.13
2023-01-07T13:20:29.711Z,2.03
2023-01-07T13:22:58.516Z,2.37
2023-01-07T13:25:33.019Z,3.20
2023-01-07T13:28:09.886Z,2.33
2023-01-07T13:30:41.648Z,1.90
2023-01-07T13:33:17.629Z,2.70
2023-01-07T13:35:51.268Z,3.57
2023-01-07T13:38:28.554Z,2.23
2023-01-07T13:41:08.667Z,2.60
2023-01-07T13:43:44.665Z,2.23
2023-01-07T13:46:14.879Z,3.27
2023-01-07T13:48:48.822Z,4.37
2023-01-07T13:51:17.922Z,3.00
2023-01-07T13:53:47.213Z,2.70
2023-01-07T13:56:32.905Z,2.63
2023-01-07T13:59:01.501Z,2.40
2023-01-07T14:01:30.766Z,3.10
2023-01-07T14:04:02.755Z,1.83
2023-01-07T14:06:38.737Z,2.83
2023-01-07T14:09:27.428Z,2.77
2023-01-07T14:12:16.254Z,3.57
2023-01-07T14:14:49.642Z,3.10
2023-01-07T14:17:22.094Z,3.20
2023-01-07T14:19:57.399Z,3.40
2023-01-07T14:22:30.660Z,2.90
2023-01-07T14:25:05.000Z,3.70
2023-01-07T14:27:42.628Z,2.40
2023-01-07T14:30:20.735Z,2.80
2023-01-07T14:32:57.121Z,2.87
2023-01-07T14:35:29.196Z,3.73
2023-01-07T14:37:57.583Z,3.53
2023-01-07T14:40:44.762Z,3.17
2023-01-07T14:43:31.754Z,2.77
2023-01-07T14:46:00.210Z,2.93
2023-01-07T14:48:30.035Z,2.73
2023-01-07T14:51:07.901Z,2.47
2023-01-07T14:53:48.293Z,3.43
2023-01-07T14:56:20.961Z,2.70
2023-01-07T14:59:04.661Z,3.63
2023-01-07T15:01:42.333Z,3.07
2023-01-07T15:04:34.881Z,2.57
2023-01-07T15:07:05.624Z,2.50
2023-01-07T15:09:56.581Z,3.23
2023-01-07T15:12:44.826Z,3.30
2023-01-07T15:15:32.522Z,3.03
2023-01-07T15:18:01.036Z,3.37
2023-01-07T15:20:33.530Z,2.53
2023-01-07T15:23:08.629Z,2.63
2023-01-07T15:25:42.694Z,2.03
2023-01-07T15:28:14.547Z,3.80
2023-01-07T15:30:48.697Z,3.07
2023-01-07T15:33:36.526Z,4.07
2023-01-07T15:36:05.688Z,3.17
2023-01-07T15:38:38.652Z,2.60
2023-01-07T15:41:07.124Z,3.03
2023-01-07T15:43:35.811Z,4.83
2023-01-07T15:46:05.267Z,3.47
2023-01-07T15:48:33.638Z,2.97
2023-01-07T15:51:02.219Z,5.20
2023-01-07T15:53:31.973Z,5.20
2023-01-07T15:56:03.465Z,3.03
2023-01-07T15:58:35.546Z,2.93
2023-01-07T16:01:05.006Z,3.53
2023-01-07T16:03:34.788Z,2.73
2023-01-07T16:06:03.246Z,3.20
2023-01-07T16:08:32.691Z,3.10
2023-01-07T16:11:03.787Z,3.50
2023-01-07T16:13:32.670Z,2.70
2023-01-07T16:16:03.210Z,3.20
2023-01-07T16:18:33.449Z,3.43
2023-01-07T16:21:02.881Z,3.73
2023-01-07T16:23:32.670Z,4.43
2023-01-07T16:26:05.036Z,2.90
2023-01-07T16:28:34.771Z,3.53
2023-01-07T16:31:05.496Z,2.90
2023-01-07T16:33:35.128Z,3.17
2023-01-07T16:36:05.835Z,2.43
2023-01-07T16:38:36.498Z,2.73
2023-01-07T16:41:06.397Z,2.97
2023-01-07T16:43:43.318Z,2.97
2023-01-07T16:46:18.914Z,2.40
2023-01-07T16:48:47.382Z,4.93
2023-01-07T16:51:34.170Z,2.43
2023-01-07T16:54:19.499Z,3.50
2023-01-07T16:56:51.636Z,3.27
2023-01-07T16:59:21.007Z,3.47
2023-01-07T17:01:49.571Z,2.90
2023-01-07T17:04:19.527Z,3.97
2023-01-07T17:06:48.018Z,3.37
2023-01-07T17:09:21.117Z,2.27
2023-01-07T17:11:51.836Z,4.27
2023-01-07T17:14:39.071Z,3.50
2023-01-07T17:17:19.934Z,3.97
2023-01-07T17:19:49.275Z,5.50
2023-01-07T17:22:29.435Z,4.07
2023-01-07T17:25:01.347Z,3.97
2023-01-07T17:27:31.976Z,4.50
2023-01-07T17:30:03.049Z,4.50
2023-01-07T17:32:31.544Z,4.03
2023-01-07T17:35:03.895Z,4.87
2023-01-07T17:37:32.610Z,3.90
2023-01-07T17:40:00.901Z,4.77
2023-01-07T17:42:50.038Z,4.13
2023-01-07T17:45:19.191Z,2.93
2023-01-07T17:47:49.524Z,4.83
2023-01-07T17:50:18.830Z,4.73
2023-01-07T17:52:48.459Z,5.60
2023-01-07T17:55:17.558Z,5.13
2023-01-07T17:57:47.309Z,5.97
2023-01-07T18:00:16.959Z,5.00
2023-01-07T18:02:45.482Z,5.17
2023-01-07T18:05:15.512Z,6.00
2023-01-07T18:07:44.091Z,6.20
2023-01-07T18:10:16.174Z,6.13
2023-01-07T18:12:43.677Z,6.83
2023-01-07T18:15:18.592Z,6.57
2023-01-07T18:17:47.216Z,5.97
2023-01-07T18:20:16.330Z,3.27
2023-01-07T18:22:44.927Z,6.57
2023-01-07T18:25:17.585Z,5.90
2023-01-07T18:27:45.968Z,5.90
2023-01-07T18:30:15.975Z,4.87
2023-01-07T18:32:45.795Z,5.13
2023-01-07T18:35:14.388Z,5.33
2023-01-07T18:37:42.772Z,7.27
2023-01-07T18:40:11.772Z,4.87
2023-01-07T18:42:40.148Z,5.20
2023-01-07T18:45:09.027Z,5.33
2023-01-07T18:47:37.361Z,4.40
2023-01-07T18:50:08.997Z,5.73
2023-01-07T18:52:38.838Z,4.30
2023-01-07T18:55:07.790Z,6.30
2023-01-07T18:57:36.348Z,5.27
2023-01-07T19:00:05.939Z,5.93
2023-01-07T19:02:34.362Z,4.90
2023-01-07T19:05:02.711Z,4.27
2023-01-07T19:07:32.445Z,7.23
2023-01-07T19:10:00.816Z,4.47
2023-01-07T19:12:29.146Z,4.07
2023-01-07T19:14:57.503Z,4.73
2023-01-07T19:17:25.835Z,5.20
2023-01-07T19:19:54.181Z,6.33
2023-01-07T19:22:22.529Z,6.40
2023-01-07T19:24:52.212Z,6.43
2023-01-07T19:27:20.583Z,4.77
2023-01-07T19:29:48.903Z,5.63
2023-01-07T19:32:17.201Z,5.23
2023-01-07T19:34:45.608Z,5.67
2023-01-07T19:37:14.039Z,4.83
2023-01-07T19:39:42.391Z,6.87
2023-01-07T19:42:12.789Z,5.27
2023-01-07T19:44:41.634Z,6.30
2023-01-07T19:47:10.440Z,6.97
2023-01-07T19:49:38.904Z,5.87
2023-01-07T19:52:07.387Z,6.00
2023-01-07T19:54:35.885Z,5.23
2023-01-07T19:57:04.208Z,5.93
2023-01-07T19:59:34.972Z,5.50
2023-01-07T20:02:03.638Z,4.83
2023-01-07T20:04:32.397Z,5.87
2023-01-07T20:07:00.732Z,5.43
2023-01-07T20:09:29.103Z,7.00
2023-01-07T20:11:57.486Z,5.03
2023-01-07T20:14:25.808Z,6.17
2023-01-07T20:16:55.542Z,6.70
2023-01-07T20:19:24.295Z,6.70
2023-01-07T20:21:52.684Z,5.90
2023-01-07T20:24:21.706Z,5.57
2023-01-07T20:26:50.050Z,6.17
2023-01-07T20:29:18.346Z,6.93
2023-01-07T20:31:46.849Z,6.67
2023-01-07T20:34:16.539Z,6.60
2023-01-07T20:36:44.865Z,4.03
2023-01-07T20:39:13.256Z,6.77
2023-01-07T20:41:43.093Z,6.73
2023-01-07T20:44:13.242Z,3.97
2023-01-07T20:46:41.941Z,6.47
2023-01-07T20:49:10.652Z,7.10
2023-01-07T20:51:40.363Z,6.97
2023-01-07T20:54:08.836Z,7.40
2023-01-07T20:56:37.204Z,6.40
2023-01-07T20:59:05.759Z,7.57
2023-01-07T21:01:34.323Z,8.30
2023-01-07T21:04:02.744Z,6.03
2023-01-07T21:06:31.186Z,7.73
2023-01-07T21:09:00.899Z,6.43
2023-01-07T21:11:29.190Z,6.53
2023-01-07T21:13:57.584Z,8.13
2023-01-07T21:16:27.499Z,5.73
2023-01-07T21:18:55.900Z,8.03
2023-01-07T21:21:25.762Z,7.63
2023-01-07T21:23:54.596Z,6.77
2023-01-07T21:26:25.037Z,7.37
2023-01-07T21:28:55.644Z,7.90
2023-01-07T21:31:24.027Z,6.70
2023-01-07T21:33:54.930Z,6.60
2023-01-07T21:36:23.310Z,4.93
2023-01-07T21:38:54.884Z,7.70
2023-01-07T21:41:25.538Z,6.70
2023-01-07T21:43:54.001Z,4.27
2023-01-07T21:46:22.975Z,5.47
2023-01-07T21:48:51.832Z,7.03
2023-01-07T21:51:20.998Z,6.00
2023-01-07T21:53:49.615Z,5.93
2023-01-07T21:56:19.110Z,6.10
2023-01-07T21:58:49.124Z,5.93
2023-01-07T22:01:17.960Z,7.33
2023-01-07T22:03:47.967Z,5.70
2023-01-07T22:06:18.980Z,5.77
2023-01-07T22:08:47.359Z,6.63
2023-01-07T22:11:15.836Z,6.50
2023-01-07T22:13:44.213Z,4.20
2023-01-07T22:16:13.921Z,6.30
2023-01-07T22:18:42.345Z,6.60
2023-01-07T22:21:10.666Z,6.27
2023-01-07T22:23:38.991Z,9.00
2023-01-07T22:26:08.359Z,5.90
2023-01-07T22:28:38.147Z,4.30
2023-01-07T22:31:10.008Z,5.63
2023-01-07T22:33:39.765Z,5.80
2023-01-07T22:36:08.622Z,3.73
2023-01-07T22:38:37.298Z,5.27
2023-01-07T22:41:05.770Z,5.73
2023-01-07T22:43:34.333Z,5.67
2023-01-07T22:46:04.814Z,4.17
2023-01-07T22:48:34.942Z,4.97
2023-01-07T22:51:07.278Z,4.93
2023-01-07T22:53:35.625Z,3.97
2023-01-07T22:56:04.842Z,1.90
2023-01-07T22:58:33.148Z,3.93
2023-01-07T23:01:12.813Z,3.27
2023-01-07T23:03:41.763Z,6.03
2023-01-07T23:06:12.867Z,4.30
2023-01-07T23:08:41.570Z,3.73
2023-01-07T23:11:10.626Z,5.37
2023-01-07T23:13:39.533Z,3.93
2023-01-07T23:16:08.354Z,3.30
2023-01-07T23:18:36.765Z,3.90
2023-01-07T23:21:06.148Z,6.83
2023-01-07T23:23:35.821Z,9.53
2023-01-07T23:26:04.177Z,4.47
2023-01-07T23:28:32.489Z,10.77
2023-01-07T23:31:02.197Z,7.10
2023-01-07T23:33:30.550Z,10.63
2023-01-07T23:36:03.212Z,5.83
2023-01-07T23:38:31.573Z,3.57
2023-01-07T23:41:05.472Z,5.20
2023-01-07T23:43:34.102Z,3.40
2023-01-07T23:46:02.890Z,7.30
2023-01-07T23:48:32.344Z,10.17
2023-01-07T23:51:05.873Z,6.70
2023-01-07T23:53:34.296Z,8.93
2023-01-07T23:56:04.336Z,11.57
2023-01-07T23:58:33.145Z,12.17
